createdAt,value
2022-12-18T00:02:13.852Z,95949.53
2022-12-18T00:04:40.530Z,95955.34
2022-12-18T00:07:07.126Z,95947.75
2022-12-18T00:09:40.213Z,95952.59
2022-12-18T00:14:45.162Z,95946.69
2022-12-18T00:17:11.964Z,95961.66
2022-12-18T00:19:38.584Z,95960.84
2022-12-18T00:22:06.041Z,95960.00
2022-12-18T00:24:32.748Z,95962.47
2022-12-18T00:26:59.312Z,95952.25
2022-12-18T00:29:26.022Z,95958.16
2022-12-18T00:31:52.800Z,95961.50
2022-12-18T00:34:19.410Z,95971.34
2022-12-18T00:36:48.679Z,95973.97
2022-12-18T00:39:15.334Z,95975.50
2022-12-18T00:42:03.341Z,95977.94
2022-12-18T00:44:31.242Z,95982.97
2022-12-18T00:46:57.799Z,95981.25
2022-12-18T00:49:24.751Z,95988.78
2022-12-18T00:51:51.503Z,95988.78
2022-12-18T00:54:18.671Z,95998.78
2022-12-18T00:56:48.611Z,96016.31
2022-12-18T00:59:17.480Z,96007.16
2022-12-18T01:01:44.520Z,96002.09
2022-12-18T01:04:11.262Z,96005.31
2022-12-18T01:06:37.846Z,95995.22
2022-12-18T01:09:04.654Z,95990.19
2022-12-18T01:11:31.915Z,96007.72
2022-12-18T01:14:01.425Z,96009.53
2022-12-18T01:16:28.343Z,96012.06
2022-12-18T01:18:55.613Z,96016.13
2022-12-18T01:21:23.348Z,96004.31
2022-12-18T01:23:56.104Z,96002.75
2022-12-18T01:26:25.234Z,96010.31
2022-12-18T01:28:51.913Z,96012.75
2022-12-18T01:31:23.370Z,96030.44
2022-12-18T01:33:51.212Z,96032.88
2022-12-18T01:36:25.513Z,96025.25
2022-12-18T01:38:52.871Z,96027.78
2022-12-18T01:41:24.943Z,96032.03
2022-12-18T01:43:53.357Z,96029.63
2022-12-18T01:46:23.834Z,96033.03
2022-12-18T01:48:58.192Z,96039.75
2022-12-18T01:51:26.567Z,96039.81
2022-12-18T01:53:53.384Z,96039.75
2022-12-18T01:56:23.107Z,96033.81
2022-12-18T01:59:06.585Z,96038.09
2022-12-18T02:01:33.899Z,96030.47
2022-12-18T02:04:21.468Z,96030.44
2022-12-18T02:06:53.289Z,96037.06
2022-12-18T02:09:22.209Z,96037.19
2022-12-18T02:11:55.295Z,96032.31
2022-12-18T02:14:32.814Z,96033.34
2022-12-18T02:17:02.395Z,96027.41
2022-12-18T02:19:30.146Z,96022.31
2022-12-18T02:22:05.734Z,96020.69
2022-12-18T02:24:58.497Z,96021.50
2022-12-18T02:27:25.784Z,96022.28
2022-12-18T02:29:58.779Z,96017.41
2022-12-18T02:32:32.499Z,96019.94
2022-12-18T02:35:00.950Z,96020.81
2022-12-18T02:37:31.640Z,96027.41
2022-12-18T02:40:02.948Z,96028.25
2022-12-18T02:42:31.656Z,96026.66
2022-12-18T02:44:59.128Z,96024.91
2022-12-18T02:47:31.261Z,96024.03
2022-12-18T02:50:16.002Z,96028.22
2022-12-18T02:52:46.982Z,96033.09
2022-12-18T02:55:35.376Z,96028.94
2022-12-18T02:58:33.565Z,96026.44
2022-12-18T03:01:12.334Z,96023.13
2022-12-18T03:03:56.456Z,96023.19
2022-12-18T03:06:38.625Z,96024.06
2022-12-18T03:09:12.559Z,96018.19
2022-12-18T03:12:04.224Z,96016.59
2022-12-18T03:14:35.108Z,96011.63
2022-12-18T03:17:06.158Z,96018.31
2022-12-18T03:19:34.229Z,96021.66
2022-12-18T03:22:04.888Z,96018.50
2022-12-18T03:24:41.596Z,96017.91
2022-12-18T03:27:13.893Z,96019.66
2022-12-18T03:29:49.828Z,96023.88
2022-12-18T03:32:34.435Z,96017.91
2022-12-18T03:35:06.760Z,96018.78
2022-12-18T03:37:36.612Z,96021.44
2022-12-18T03:40:05.345Z,96032.44
2022-12-18T03:42:47.884Z,96032.41
2022-12-18T03:45:28.130Z,96042.38
2022-12-18T03:48:20.021Z,96043.25
2022-12-18T03:50:55.433Z,96040.72
2022-12-18T03:53:38.209Z,96039.94
2022-12-18T03:56:07.914Z,96038.38
2022-12-18T03:58:41.439Z,96030.63
2022-12-18T04:01:38.411Z,96037.31
2022-12-18T04:04:06.997Z,96046.56
2022-12-18T04:06:38.317Z,96044.00
2022-12-18T04:09:05.720Z,96053.31
2022-12-18T04:11:36.412Z,96056.59
2022-12-18T04:14:07.388Z,96059.22
2022-12-18T04:16:34.766Z,96055.97
2022-12-18T04:19:04.325Z,96046.09
2022-12-18T04:21:36.065Z,96039.41
2022-12-18T04:24:03.817Z,96039.38
2022-12-18T04:26:30.487Z,96037.81
2022-12-18T04:29:17.981Z,96042.81
2022-12-18T04:31:44.652Z,96041.06
2022-12-18T04:34:11.724Z,96044.34
2022-12-18T04:36:43.997Z,96036.69
2022-12-18T04:39:10.823Z,96045.91
2022-12-18T04:41:37.429Z,96056.91
2022-12-18T04:44:05.354Z,96059.75
2022-12-18T04:46:32.041Z,96061.41
2022-12-18T04:48:58.614Z,96063.09
2022-12-18T04:51:26.840Z,96069.03
2022-12-18T04:53:54.459Z,96070.69
2022-12-18T04:56:21.069Z,96074.06
2022-12-18T04:58:47.698Z,96078.31
2022-12-18T05:01:16.000Z,96079.88
2022-12-18T05:03:43.221Z,96072.31
2022-12-18T05:06:10.786Z,96075.53
2022-12-18T05:08:37.729Z,96083.09
2022-12-18T05:11:07.765Z,96083.06
2022-12-18T05:13:35.816Z,96081.53
2022-12-18T05:16:03.747Z,96066.63
2022-12-18T05:18:30.970Z,96073.47
2022-12-18T05:20:57.989Z,96089.31
2022-12-18T05:23:26.000Z,96091.84
2022-12-18T05:25:53.473Z,96090.88
2022-12-18T05:28:20.877Z,96095.63
2022-12-18T05:30:55.646Z,96103.16
2022-12-18T05:33:24.233Z,96109.78
2022-12-18T05:35:56.251Z,96114.03
2022-12-18T05:38:23.835Z,96112.22
2022-12-18T05:40:51.686Z,96108.81
2022-12-18T05:43:21.421Z,96116.66
2022-12-18T05:45:49.124Z,96115.09
2022-12-18T05:48:16.888Z,96113.47
2022-12-18T05:50:46.531Z,96107.59
2022-12-18T05:53:17.778Z,96103.63
2022-12-18T05:55:45.368Z,96102.81
2022-12-18T05:58:13.456Z,96108.69
2022-12-18T06:00:42.634Z,96104.47
2022-12-18T06:03:10.634Z,96117.03
2022-12-18T06:05:39.965Z,96117.06
2022-12-18T06:08:06.968Z,96119.69
2022-12-18T06:10:33.971Z,96107.19
2022-12-18T06:13:01.124Z,96105.59
2022-12-18T06:15:27.680Z,96111.25
2022-12-18T06:17:54.215Z,96117.88
2022-12-18T06:20:21.197Z,96117.91
2022-12-18T06:22:47.785Z,96117.16
2022-12-18T06:25:14.394Z,96127.22
2022-12-18T06:27:41.180Z,96127.31
2022-12-18T06:30:09.498Z,96131.50
2022-12-18T06:32:36.080Z,96129.81
2022-12-18T06:35:02.637Z,96124.69
2022-12-18T06:37:29.383Z,96128.81
2022-12-18T06:39:57.520Z,96133.06
2022-12-18T06:42:25.023Z,96130.50
2022-12-18T06:44:51.845Z,96143.03
2022-12-18T06:47:19.249Z,96144.72
2022-12-18T06:49:45.810Z,96146.34
2022-12-18T06:52:12.385Z,96149.75
2022-12-18T06:54:38.919Z,96147.16
2022-12-18T06:57:05.533Z,96153.81
2022-12-18T06:59:32.133Z,96155.56
2022-12-18T07:01:58.784Z,96160.53
2022-12-18T07:04:33.044Z,96159.63
2022-12-18T07:06:59.624Z,96167.06
2022-12-18T07:09:26.222Z,96173.78
2022-12-18T07:11:53.448Z,96168.84
2022-12-18T07:14:20.219Z,96167.19
2022-12-18T07:16:46.806Z,96177.25
2022-12-18T07:19:13.381Z,96193.88
2022-12-18T07:21:39.970Z,96183.88
2022-12-18T07:24:07.277Z,96169.69
2022-12-18T07:26:33.920Z,96173.78
2022-12-18T07:29:00.501Z,96168.78
2022-12-18T07:31:28.340Z,96177.03
2022-12-18T07:33:55.286Z,96175.31
2022-12-18T07:36:25.270Z,96181.84
2022-12-18T07:38:53.446Z,96178.59
2022-12-18T07:41:21.010Z,96170.41
2022-12-18T07:43:48.039Z,96175.56
2022-12-18T07:46:15.736Z,96176.31
2022-12-18T07:48:44.666Z,96173.66
2022-12-18T07:51:13.449Z,96185.28
2022-12-18T07:53:41.087Z,96186.06
2022-12-18T07:56:28.096Z,96188.59
2022-12-18T07:58:56.115Z,96197.38
2022-12-18T08:01:22.865Z,96206.72
2022-12-18T08:03:51.595Z,96207.50
2022-12-18T08:06:19.316Z,96206.72
2022-12-18T08:08:49.192Z,96204.31
2022-12-18T08:11:16.511Z,96214.34
2022-12-18T08:13:43.350Z,96208.47
2022-12-18T08:16:10.328Z,96210.09
2022-12-18T08:18:38.204Z,96212.59
2022-12-18T08:21:20.814Z,96211.63
2022-12-18T08:23:48.729Z,96215.91
2022-12-18T08:26:16.326Z,96210.63
2022-12-18T08:28:43.278Z,96213.16
2022-12-18T08:31:10.808Z,96209.88
2022-12-18T08:33:40.240Z,96212.56
2022-12-18T08:36:10.398Z,96214.44
2022-12-18T08:38:36.977Z,96209.44
2022-12-18T08:41:08.336Z,96214.34
2022-12-18T08:43:53.738Z,96212.25
2022-12-18T08:46:21.573Z,96208.75
2022-12-18T08:48:48.764Z,96206.00
2022-12-18T08:51:18.199Z,96211.72
2022-12-18T08:53:45.514Z,96216.69
2022-12-18T08:56:13.111Z,96219.34
2022-12-18T08:58:39.953Z,96212.69
2022-12-18T09:01:10.162Z,96212.63
2022-12-18T09:03:36.893Z,96218.63
2022-12-18T09:06:03.993Z,96212.53
2022-12-18T09:08:30.980Z,96220.75
2022-12-18T09:10:58.250Z,96215.97
2022-12-18T09:13:27.114Z,96216.66
2022-12-18T09:15:55.458Z,96216.28
2022-12-18T09:18:23.685Z,96216.81
2022-12-18T09:20:52.717Z,96213.53
2022-12-18T09:23:19.519Z,96223.78
2022-12-18T09:25:46.225Z,96222.81
2022-12-18T09:28:18.239Z,96225.16
2022-12-18T09:30:48.706Z,96223.13
2022-12-18T09:33:15.707Z,96224.50
2022-12-18T09:35:44.396Z,96219.25
2022-12-18T09:38:17.514Z,96221.22
2022-12-18T09:40:49.181Z,96219.41
2022-12-18T09:43:33.532Z,96223.66
2022-12-18T09:46:06.159Z,96221.09
2022-12-18T09:48:37.355Z,96207.97
2022-12-18T09:51:15.595Z,96204.88
2022-12-18T09:53:47.572Z,96210.25
2022-12-18T09:56:19.723Z,96209.91
2022-12-18T09:58:58.226Z,96209.69
2022-12-18T10:01:30.343Z,96201.63
2022-12-18T10:04:04.812Z,96200.53
2022-12-18T10:06:53.719Z,96204.22
2022-12-18T10:09:38.187Z,96197.06
2022-12-18T10:13:00.960Z,96200.22
2022-12-18T10:16:01.468Z,96198.00
2022-12-18T10:18:58.584Z,96199.78
2022-12-18T10:21:33.014Z,96189.47
2022-12-18T10:24:05.745Z,96176.78
2022-12-18T10:26:33.762Z,96174.00
2022-12-18T10:29:05.292Z,96169.53
2022-12-18T10:31:35.363Z,96166.59
2022-12-18T10:34:02.357Z,96163.19
2022-12-18T10:36:29.017Z,96172.75
2022-12-18T10:39:16.118Z,96176.31
2022-12-18T10:41:42.657Z,96165.09
2022-12-18T10:44:21.323Z,96165.25
2022-12-18T10:46:50.871Z,96161.91
2022-12-18T10:49:33.577Z,96151.47
2022-12-18T10:52:18.443Z,96162.25
2022-12-18T10:54:56.331Z,96170.34
2022-12-18T10:57:33.841Z,96180.06
2022-12-18T11:00:21.075Z,96179.00
2022-12-18T11:02:47.849Z,96177.13
2022-12-18T11:05:31.390Z,96175.44
2022-12-18T11:07:59.777Z,96182.22
2022-12-18T11:10:31.469Z,96170.84
2022-12-18T11:13:11.365Z,96177.53
2022-12-18T11:15:38.069Z,96176.69
2022-12-18T11:18:04.941Z,96176.47
2022-12-18T11:20:36.382Z,96183.09
2022-12-18T11:23:12.118Z,96172.47
2022-12-18T11:25:39.282Z,96171.59
2022-12-18T11:28:37.903Z,96171.06
2022-12-18T11:31:13.434Z,96166.59
2022-12-18T11:34:04.809Z,96167.88
2022-12-18T11:36:43.266Z,96171.31
2022-12-18T11:39:27.303Z,96168.81
2022-12-18T11:42:11.101Z,96161.81
2022-12-18T11:44:43.469Z,96159.47
2022-12-18T11:47:36.474Z,96155.47
2022-12-18T11:50:04.888Z,96152.09
2022-12-18T11:52:40.300Z,96157.28
2022-12-18T11:55:48.628Z,96157.72
2022-12-18T11:58:43.095Z,96158.97
2022-12-18T12:01:28.615Z,96157.50
2022-12-18T12:04:13.617Z,96142.16
2022-12-18T12:06:52.926Z,96147.50
2022-12-18T12:09:51.582Z,96141.09
2022-12-18T12:12:50.222Z,96134.63
2022-12-18T12:16:07.848Z,96133.56
2022-12-18T12:18:43.442Z,96137.25
2022-12-18T12:21:28.616Z,96134.56
2022-12-18T12:24:11.710Z,96129.34
2022-12-18T12:26:47.227Z,96131.66
2022-12-18T12:29:41.111Z,96129.03
2022-12-18T12:32:33.685Z,96130.25
2022-12-18T12:35:17.299Z,96126.84
2022-12-18T12:38:06.533Z,96135.06
2022-12-18T12:41:00.501Z,96137.59
2022-12-18T12:43:47.965Z,96135.41
2022-12-18T12:46:20.826Z,96138.56
2022-12-18T12:49:00.052Z,96133.63
2022-12-18T12:51:30.806Z,96131.16
2022-12-18T12:54:00.163Z,96132.56
2022-12-18T12:57:11.453Z,96126.47
2022-12-18T13:00:11.218Z,96122.75
2022-12-18T13:03:02.993Z,96129.44
2022-12-18T13:05:50.709Z,96131.06
2022-12-18T13:08:35.037Z,96135.09
2022-12-18T13:11:21.027Z,96128.63
2022-12-18T13:13:53.771Z,96122.06
2022-12-18T13:16:24.645Z,96124.88
2022-12-18T13:18:59.975Z,96125.13
2022-12-18T13:21:33.280Z,96126.53
2022-12-18T13:24:35.847Z,96123.41
2022-12-18T13:27:41.117Z,96120.25
2022-12-18T13:30:33.477Z,96123.06
2022-12-18T13:33:15.072Z,96122.81
2022-12-18T13:36:13.236Z,96120.09
2022-12-18T13:38:41.165Z,96124.44
2022-12-18T13:41:19.458Z,96120.16
2022-12-18T13:43:48.717Z,96117.63
2022-12-18T13:46:19.004Z,96118.53
2022-12-18T13:49:06.160Z,96128.25
2022-12-18T13:51:35.883Z,96126.53
2022-12-18T13:54:26.781Z,96125.84
2022-12-18T13:56:53.465Z,96131.91
2022-12-18T13:59:33.876Z,96127.84
2022-12-18T14:02:06.788Z,96124.59
2022-12-18T14:04:36.611Z,96134.63
2022-12-18T14:07:11.614Z,96135.41
2022-12-18T14:10:12.165Z,96136.53
2022-12-18T14:12:57.872Z,96138.03
2022-12-18T14:15:42.216Z,96134.63
2022-12-18T14:18:25.516Z,96146.78
2022-12-18T14:20:55.609Z,96143.81
2022-12-18T14:23:29.915Z,96144.59
2022-12-18T14:25:58.629Z,96139.50
2022-12-18T14:28:29.529Z,96139.50
2022-12-18T14:30:57.208Z,96143.66
2022-12-18T14:33:28.552Z,96144.91
2022-12-18T14:36:04.619Z,96138.06
2022-12-18T14:38:35.774Z,96133.81
2022-12-18T14:41:14.467Z,96134.91
2022-12-18T14:43:44.015Z,96126.59
2022-12-18T14:46:47.100Z,96121.34
2022-12-18T14:49:22.421Z,96129.81
2022-12-18T14:51:52.697Z,96139.38
2022-12-18T14:54:20.834Z,96135.94
2022-12-18T14:56:51.080Z,96136.44
2022-12-18T14:59:25.539Z,96141.38
2022-12-18T15:02:00.798Z,96142.25
2022-12-18T15:04:32.652Z,96146.53
2022-12-18T15:07:10.684Z,96144.34
2022-12-18T15:09:39.033Z,96147.00
2022-12-18T15:12:06.473Z,96146.25
2022-12-18T15:14:41.596Z,96147.94
2022-12-18T15:17:24.101Z,96148.09
2022-12-18T15:19:59.481Z,96156.34
2022-12-18T15:22:27.506Z,96155.56
2022-12-18T15:24:55.643Z,96158.25
2022-12-18T15:27:36.559Z,96155.66
2022-12-18T15:30:23.385Z,96155.66
2022-12-18T15:32:50.895Z,96153.94
2022-12-18T15:35:23.888Z,96147.31
2022-12-18T15:37:52.248Z,96143.22
2022-12-18T15:40:21.634Z,96140.00
2022-12-18T15:43:07.903Z,96141.94
2022-12-18T15:45:34.583Z,96147.09
2022-12-18T15:48:16.392Z,96142.78
2022-12-18T15:50:42.984Z,96135.34
2022-12-18T15:53:09.908Z,96132.03
2022-12-18T15:55:59.373Z,96132.88
2022-12-18T15:58:27.667Z,96138.69
2022-12-18T16:00:56.748Z,96132.19
2022-12-18T16:03:23.367Z,96128.91
2022-12-18T16:05:50.149Z,96119.69
2022-12-18T16:08:16.781Z,96122.31
2022-12-18T16:10:43.492Z,96119.16
2022-12-18T16:13:16.399Z,96128.31
2022-12-18T16:15:43.109Z,96134.22
2022-12-18T16:18:09.731Z,96131.69
2022-12-18T16:20:36.369Z,96123.34
2022-12-18T16:23:02.928Z,96128.53
2022-12-18T16:25:29.935Z,96130.25
2022-12-18T16:27:57.775Z,96130.31
2022-12-18T16:30:28.691Z,96131.25
2022-12-18T16:33:02.404Z,96137.84
2022-12-18T16:35:29.091Z,96140.38
2022-12-18T16:37:55.735Z,96137.75
2022-12-18T16:40:22.338Z,96142.00
2022-12-18T16:42:49.091Z,96131.88
2022-12-18T16:45:18.527Z,96142.75
2022-12-18T16:47:48.048Z,96146.03
2022-12-18T16:50:14.891Z,96130.94
2022-12-18T16:52:41.737Z,96130.91
2022-12-18T16:55:09.174Z,96130.00
2022-12-18T16:57:35.965Z,96131.69
2022-12-18T17:00:05.587Z,96133.31
2022-12-18T17:02:33.629Z,96131.59
2022-12-18T17:05:00.492Z,96130.72
2022-12-18T17:07:36.543Z,96127.44
2022-12-18T17:10:03.581Z,96125.66
2022-12-18T17:12:32.595Z,96123.09
2022-12-18T17:14:59.216Z,96125.59
2022-12-18T17:17:25.837Z,96116.56
2022-12-18T17:19:52.813Z,96118.28
2022-12-18T17:22:20.491Z,96118.31
2022-12-18T17:24:47.607Z,96110.84
2022-12-18T17:27:14.532Z,96115.03
2022-12-18T17:29:47.462Z,96118.50
2022-12-18T17:32:16.003Z,96125.28
2022-12-18T17:34:42.568Z,96116.88
2022-12-18T17:37:09.494Z,96115.97
2022-12-18T17:39:36.129Z,96115.97
2022-12-18T17:42:02.804Z,96118.31
2022-12-18T17:44:29.624Z,96118.22
2022-12-18T17:46:56.256Z,96119.06
2022-12-18T17:49:22.951Z,96114.13
2022-12-18T17:51:49.712Z,96108.41
2022-12-18T17:54:16.291Z,96113.38
2022-12-18T17:56:43.124Z,96100.06
2022-12-18T17:59:10.854Z,96098.38
2022-12-18T18:01:43.682Z,96092.44
2022-12-18T18:04:11.106Z,96102.34
2022-12-18T18:06:39.309Z,96098.06
2022-12-18T18:09:15.905Z,96100.59
2022-12-18T18:12:01.884Z,96099.94
2022-12-18T18:14:28.642Z,96098.47
2022-12-18T18:16:56.269Z,96101.09
2022-12-18T18:19:25.396Z,96101.16
2022-12-18T18:21:53.905Z,96111.38
2022-12-18T18:24:26.305Z,96105.41
2022-12-18T18:26:55.769Z,96097.91
2022-12-18T18:29:26.530Z,96101.19
2022-12-18T18:31:53.636Z,96098.03
2022-12-18T18:34:29.388Z,96108.16
2022-12-18T18:36:59.860Z,96100.53
2022-12-18T18:39:26.927Z,96113.06
2022-12-18T18:41:53.565Z,96107.34
2022-12-18T18:44:24.763Z,96109.09
2022-12-18T18:46:55.054Z,96100.72
2022-12-18T18:49:22.024Z,96098.41
2022-12-18T18:51:50.401Z,96102.53
2022-12-18T18:54:16.962Z,96095.03
2022-12-18T18:57:18.698Z,96105.16
2022-12-18T18:59:32.019Z,96099.03
2022-12-18T19:02:00.694Z,96093.25
2022-12-18T19:04:35.154Z,96100.97
2022-12-18T19:07:01.988Z,96100.34
2022-12-18T19:09:28.770Z,96094.47
2022-12-18T19:12:14.505Z,96102.81
2022-12-18T19:14:41.334Z,96096.84
2022-12-18T19:17:07.906Z,96106.19
2022-12-18T19:19:34.790Z,96106.16
2022-12-18T19:22:01.566Z,96104.41
2022-12-18T19:24:28.909Z,96112.72
2022-12-18T19:26:58.104Z,96111.91
2022-12-18T19:29:25.027Z,96107.59
2022-12-18T19:31:51.820Z,96101.00
2022-12-18T19:34:18.506Z,96098.41
2022-12-18T19:36:45.135Z,96093.41
2022-12-18T19:39:17.496Z,96095.03
2022-12-18T19:41:45.096Z,96089.97
2022-12-18T19:44:13.967Z,96085.78
2022-12-18T19:46:42.327Z,96093.34
2022-12-18T19:49:18.204Z,96096.69
2022-12-18T19:51:45.247Z,96094.25
2022-12-18T19:54:17.088Z,96085.22
2022-12-18T19:56:45.310Z,96083.50
2022-12-18T19:59:12.434Z,96080.00
2022-12-18T20:01:39.063Z,96077.56
2022-12-18T20:04:06.051Z,96077.00
2022-12-18T20:06:36.661Z,96074.53
2022-12-18T20:09:06.052Z,96070.50
2022-12-18T20:11:36.919Z,96063.00
2022-12-18T20:14:09.006Z,96064.69
2022-12-18T20:16:35.896Z,96066.34
2022-12-18T20:19:02.583Z,96062.09
2022-12-18T20:21:32.239Z,96063.88
2022-12-18T20:24:00.068Z,96069.84
2022-12-18T20:26:27.604Z,96066.50
2022-12-18T20:28:54.727Z,96066.59
2022-12-18T20:31:24.709Z,96070.59
2022-12-18T20:33:52.206Z,96083.78
2022-12-18T20:36:24.483Z,96078.69
2022-12-18T20:38:59.221Z,96080.47
2022-12-18T20:41:37.500Z,96066.91
2022-12-18T20:44:18.007Z,96059.34
2022-12-18T20:46:51.843Z,96056.03
2022-12-18T20:49:18.613Z,96061.28
2022-12-18T20:51:45.161Z,96052.88
2022-12-18T20:54:14.693Z,96049.59
2022-12-18T20:56:41.279Z,96060.47
2022-12-18T20:59:08.861Z,96053.06
2022-12-18T21:01:35.573Z,96045.38
2022-12-18T21:04:04.090Z,96043.00
2022-12-18T21:06:31.390Z,96038.84
2022-12-18T21:08:59.867Z,96037.44
2022-12-18T21:11:49.195Z,96025.00
2022-12-18T21:14:20.352Z,96024.31
2022-12-18T21:16:47.999Z,96036.78
2022-12-18T21:19:17.787Z,96034.22
2022-12-18T21:21:45.145Z,96034.06
2022-12-18T21:24:12.037Z,96026.38
2022-12-18T21:26:45.498Z,96022.22
2022-12-18T21:29:15.446Z,96026.31
2022-12-18T21:31:42.963Z,96029.66
2022-12-18T21:34:14.509Z,96040.44
2022-12-18T21:36:41.055Z,96040.56
2022-12-18T21:39:08.569Z,96041.97
2022-12-18T21:41:54.092Z,96037.06
2022-12-18T21:44:23.818Z,96048.31
2022-12-18T21:46:56.786Z,96044.06
2022-12-18T21:49:26.675Z,96035.72
2022-12-18T21:51:56.206Z,96025.69
2022-12-18T21:54:23.855Z,96022.38
2022-12-18T21:56:50.416Z,96017.34
2022-12-18T21:59:20.111Z,96019.72
2022-12-18T22:01:48.026Z,96022.19
2022-12-18T22:04:15.734Z,96021.34
2022-12-18T22:06:45.703Z,96008.91
2022-12-18T22:09:15.132Z,96008.09
2022-12-18T22:11:42.424Z,95997.25
2022-12-18T22:14:09.595Z,96001.50
2022-12-18T22:16:36.333Z,96012.34
2022-12-18T22:19:04.200Z,95999.81
2022-12-18T22:21:33.391Z,96000.63
2022-12-18T22:24:02.531Z,96004.75
2022-12-18T22:26:36.403Z,96000.50
2022-12-18T22:29:25.499Z,96004.66
2022-12-18T22:31:52.203Z,96025.63
2022-12-18T22:34:22.835Z,96028.25
2022-12-18T22:36:50.751Z,96033.09
2022-12-18T22:39:26.398Z,96021.13
2022-12-18T22:41:55.563Z,96016.06
2022-12-18T22:44:22.698Z,96032.03
2022-12-18T22:47:05.450Z,96029.56
2022-12-18T22:49:34.800Z,96027.16
2022-12-18T22:52:02.933Z,96018.78
2022-12-18T22:54:29.778Z,96025.28
2022-12-18T22:56:57.030Z,96026.22
2022-12-18T22:59:24.096Z,96025.56
2022-12-18T23:01:57.077Z,96014.38
2022-12-18T23:04:30.170Z,96009.41
2022-12-18T23:07:05.489Z,96006.22
2022-12-18T23:09:32.555Z,95991.88
2022-12-18T23:11:59.226Z,95989.50
2022-12-18T23:14:26.478Z,95976.31
2022-12-18T23:16:53.344Z,95969.63
2022-12-18T23:19:21.016Z,95958.03
2022-12-18T23:21:50.678Z,95953.81
2022-12-18T23:24:17.566Z,95941.28
2022-12-18T23:26:44.113Z,95940.56
2022-12-18T23:29:10.848Z,95946.34
2022-12-18T23:31:39.652Z,95953.81
2022-12-18T23:34:08.094Z,95947.06
2022-12-18T23:36:45.300Z,95956.13
2022-12-18T23:39:22.369Z,95964.44
2022-12-18T23:42:00.286Z,95966.78
2022-12-18T23:44:27.482Z,95964.22
2022-12-18T23:46:54.330Z,95966.78
2022-12-18T23:49:20.925Z,95956.59
2022-12-18T23:51:47.879Z,95958.34
2022-12-18T23:54:14.506Z,95951.63
2022-12-18T23:56:41.062Z,95936.59
2022-12-18T23:59:07.716Z,95928.97
